createdAt,value
2023-05-08T00:00:22.364Z,14.6
2023-05-08T00:02:23.576Z,14.6
2023-05-08T00:04:24.600Z,14.6
2023-05-08T00:06:25.689Z,14.6
2023-05-08T00:10:31.027Z,14.6
2023-05-08T00:12:32.161Z,14.6
2023-05-08T00:14:33.278Z,14.6
2023-05-08T00:15:35.409Z,14.6
2023-05-08T00:31:47.511Z,14.4
2023-05-08T00:43:57.298Z,14.2
2023-05-08T00:45:58.463Z,14.2
2023-05-08T00:54:06.008Z,14.1
2023-05-08T00:56:07.104Z,14
2023-05-08T00:58:08.290Z,14
2023-05-08T01:00:09.386Z,14
2023-05-08T01:02:10.509Z,13.9
2023-05-08T01:06:16.018Z,13.9
2023-05-08T01:08:17.120Z,13.9
2023-05-08T01:11:20.344Z,13.8
2023-05-08T01:13:21.618Z,13.8
2023-05-08T01:15:22.592Z,13.8
2023-05-08T01:17:23.709Z,13.8
2023-05-08T01:19:28.060Z,13.7
2023-05-08T01:21:29.139Z,13.7
2023-05-08T01:23:30.283Z,13.7
2023-05-08T01:31:34.869Z,13.6
2023-05-08T01:39:42.467Z,13.5
2023-05-08T01:41:43.605Z,13.4
2023-05-08T01:45:45.815Z,13.4
2023-05-08T01:47:50.139Z,13.4
2023-05-08T01:49:51.192Z,13.4
2023-05-08T01:51:52.304Z,13.4
2023-05-08T01:53:53.419Z,13.4
2023-05-08T01:55:54.516Z,13.3
2023-05-08T01:59:56.761Z,13.3
2023-05-08T02:02:01.077Z,13.3
2023-05-08T02:04:02.186Z,13.2
2023-05-08T02:06:03.307Z,13.2
2023-05-08T02:07:05.408Z,13.2
2023-05-08T02:09:06.527Z,13.2
2023-05-08T02:23:17.495Z,13.1
2023-05-08T02:25:18.603Z,13.1
2023-05-08T02:29:24.023Z,13.1
2023-05-08T02:33:26.239Z,13.1
2023-05-08T02:39:29.601Z,13.1
2023-05-08T02:41:30.811Z,13
2023-05-08T02:43:35.110Z,13
2023-05-08T02:45:36.221Z,13.1
2023-05-08T02:47:37.357Z,13
2023-05-08T02:49:38.450Z,13
2023-05-08T02:51:39.573Z,13.1
2023-05-08T03:01:48.425Z,13
2023-05-08T03:04:16.326Z,12.9
2023-05-08T03:06:17.417Z,12.9
2023-05-08T03:10:22.870Z,12.9
2023-05-08T03:12:23.943Z,12.9
2023-05-08T03:14:25.064Z,12.9
2023-05-08T03:16:26.218Z,12.9
2023-05-08T03:18:27.267Z,12.9
2023-05-08T03:22:29.508Z,12.9
2023-05-08T03:26:34.908Z,12.8
2023-05-08T03:30:37.171Z,12.8
2023-05-08T03:32:38.294Z,12.8
2023-05-08T03:34:39.363Z,12.8
2023-05-08T03:36:40.479Z,12.8
2023-05-08T03:38:44.761Z,12.8
2023-05-08T03:50:51.435Z,12.7
2023-05-08T03:58:01.600Z,12.6
2023-05-08T04:00:02.734Z,12.6
2023-05-08T04:02:03.862Z,12.6
2023-05-08T04:04:04.981Z,12.6
2023-05-08T04:06:09.247Z,12.6
2023-05-08T04:08:10.391Z,12.6
2023-05-08T04:10:11.591Z,12.5
2023-05-08T04:12:12.638Z,12.5
2023-05-08T04:14:13.854Z,12.5
2023-05-08T04:16:15.166Z,12.4
2023-05-08T04:20:20.492Z,12.4
2023-05-08T04:22:21.612Z,12.4
2023-05-08T04:24:22.719Z,12.4
2023-05-08T04:26:23.828Z,12.5
2023-05-08T04:44:37.353Z,12.4
2023-05-08T04:48:43.097Z,12.4
2023-05-08T04:52:45.421Z,12.4
2023-05-08T04:53:47.562Z,12.4
2023-05-08T04:57:49.799Z,12.3
2023-05-08T04:59:51.014Z,12.3
2023-05-08T05:10:00.133Z,12.4
2023-05-08T05:12:01.339Z,12.5
2023-05-08T05:32:19.488Z,12.7
2023-05-08T05:34:20.576Z,12.7
2023-05-08T05:40:23.956Z,12.9
2023-05-08T05:42:25.068Z,12.9
2023-05-08T05:46:30.569Z,13
2023-05-08T05:48:31.669Z,13
2023-05-08T05:51:34.911Z,13.1
2023-05-08T05:53:36.039Z,13.2
2023-05-08T05:55:37.149Z,13.3
2023-05-08T05:57:41.431Z,13.3
2023-05-08T05:59:42.570Z,13.3
2023-05-08T06:01:43.852Z,13.4
2023-05-08T06:03:45.030Z,13.5
2023-05-08T06:05:46.018Z,13.6
2023-05-08T06:07:47.115Z,13.7
2023-05-08T06:09:48.217Z,13.9
2023-05-08T06:15:54.797Z,14.3
2023-05-08T06:17:55.910Z,14.4
2023-05-08T06:19:57.035Z,14.6
2023-05-08T06:21:58.096Z,14.6
2023-05-08T06:23:59.204Z,14.9
2023-05-08T06:26:03.512Z,14.9
2023-05-08T06:28:04.614Z,15
2023-05-08T06:30:05.694Z,14.8
2023-05-08T06:34:07.896Z,14.6
2023-05-08T06:36:08.991Z,14.6
2023-05-08T06:40:14.378Z,14.8
2023-05-08T06:42:15.482Z,14.8
2023-05-08T06:44:16.565Z,14.9
2023-05-08T06:46:44.576Z,15.2
2023-05-08T06:48:45.657Z,15.2
2023-05-08T06:56:53.206Z,15.6
2023-05-08T06:59:07.198Z,15.7
2023-05-08T07:00:55.379Z,15.9
2023-05-08T07:04:57.646Z,16.3
2023-05-08T07:07:01.808Z,16.5
2023-05-08T07:09:02.940Z,16.4
2023-05-08T07:11:04.012Z,16.6
2023-05-08T07:13:05.108Z,16.7
2023-05-08T07:15:17.839Z,16.4
2023-05-08T07:17:07.240Z,16.3
2023-05-08T07:19:08.307Z,16.5
2023-05-08T07:21:12.599Z,16.3
2023-05-08T07:23:13.663Z,16.2
2023-05-08T07:25:15.009Z,16.1
2023-05-08T07:27:15.823Z,16.2
2023-05-08T07:29:16.918Z,16.3
2023-05-08T07:31:17.961Z,16.3
2023-05-08T07:33:19.054Z,16.3
2023-05-08T07:35:23.324Z,16.5
2023-05-08T07:37:24.376Z,16.6
2023-05-08T07:40:27.592Z,17
2023-05-08T07:46:30.864Z,16.9
2023-05-08T07:48:35.101Z,17.1
2023-05-08T07:52:37.231Z,17.5
2023-05-08T07:54:38.293Z,17.5
2023-05-08T07:56:39.333Z,17.5
2023-05-08T07:58:40.435Z,17.3
2023-05-08T08:00:41.514Z,17.3
2023-05-08T08:02:45.828Z,17.2
2023-05-08T08:04:46.798Z,17.3
2023-05-08T08:06:47.867Z,17.1
2023-05-08T08:08:48.918Z,17
2023-05-08T08:10:49.991Z,17
2023-05-08T08:16:56.509Z,17.1
2023-05-08T08:18:57.453Z,17.3
2023-05-08T08:20:58.490Z,17.4
2023-05-08T08:25:00.638Z,17.7
2023-05-08T08:36:11.252Z,19.6
2023-05-08T08:38:12.290Z,19.7
2023-05-08T08:40:13.316Z,19.1
2023-05-08T08:42:14.371Z,18.8
2023-05-08T08:44:18.609Z,18.5
2023-05-08T08:46:19.713Z,18.5
2023-05-08T08:48:20.682Z,18.4
2023-05-08T08:50:21.749Z,18.4
2023-05-08T08:52:22.784Z,18.4
2023-05-08T08:54:23.827Z,18.7
2023-05-08T08:56:24.835Z,18.8
2023-05-08T08:58:29.114Z,19.2
2023-05-08T09:00:30.114Z,19.6
2023-05-08T09:02:31.245Z,19.5
2023-05-08T09:04:32.210Z,19.8
2023-05-08T09:06:33.240Z,19.4
2023-05-08T09:10:35.316Z,19.3
2023-05-08T09:12:39.551Z,19.4
2023-05-08T09:16:41.641Z,19.2
2023-05-08T09:18:42.645Z,19.3
2023-05-08T09:20:43.682Z,18.9
2023-05-08T09:22:44.684Z,19
2023-05-08T09:26:49.947Z,19.7
2023-05-08T09:28:51.008Z,19.8
2023-05-08T09:30:52.020Z,19.8
2023-05-08T09:31:54.173Z,20
2023-05-08T09:37:57.460Z,20.7
2023-05-08T09:42:03.917Z,21.2
2023-05-08T09:44:04.919Z,21
2023-05-08T09:46:05.945Z,20.5
2023-05-08T09:48:06.987Z,20.6
2023-05-08T09:50:07.903Z,20.2
2023-05-08T09:54:13.105Z,20.9
2023-05-08T10:00:16.463Z,20.4
2023-05-08T10:04:18.091Z,20.2
2023-05-08T10:06:19.043Z,20.3
2023-05-08T10:08:23.258Z,20.2
2023-05-08T10:10:24.273Z,20.2
2023-05-08T10:12:25.224Z,20.9
2023-05-08T10:16:27.265Z,21.7
2023-05-08T10:20:29.181Z,21
2023-05-08T10:24:34.380Z,22
2023-05-08T10:29:03.096Z,21.7
2023-05-08T10:31:04.150Z,21.5
2023-05-08T10:35:09.226Z,20.6
2023-05-08T10:37:10.211Z,20.4
2023-05-08T10:39:11.186Z,20.4
2023-05-08T10:41:12.144Z,20.4
2023-05-08T10:43:13.135Z,20.4
2023-05-08T10:45:14.115Z,20.1
2023-05-08T10:47:15.101Z,20.1
2023-05-08T10:49:19.324Z,19.8
2023-05-08T10:57:23.274Z,19.5
2023-05-08T10:59:24.298Z,19.5
2023-05-08T11:03:32.643Z,18.7
2023-05-08T11:05:30.498Z,18.6
2023-05-08T11:07:31.550Z,18.9
2023-05-08T11:09:32.546Z,19
2023-05-08T11:11:33.599Z,19.1
2023-05-08T11:13:34.634Z,19
2023-05-08T11:15:35.652Z,19
2023-05-08T11:17:39.888Z,19
2023-05-08T11:19:40.925Z,19
2023-05-08T11:21:41.965Z,19.1
2023-05-08T11:22:44.057Z,18.9
2023-05-08T11:24:45.108Z,18.8
2023-05-08T11:45:01.992Z,17.4
2023-05-08T11:47:03.206Z,17.4
2023-05-08T11:49:04.112Z,17.5
2023-05-08T11:51:05.184Z,17.4
2023-05-08T11:53:06.248Z,17.3
2023-05-08T11:55:07.323Z,17.4
2023-05-08T11:57:08.379Z,17.4
2023-05-08T11:59:12.645Z,17.5
2023-05-08T12:01:13.744Z,17.6
2023-05-08T12:05:15.833Z,17.8
2023-05-08T12:07:16.898Z,18.1
2023-05-08T12:09:17.989Z,18.3
2023-05-08T12:11:19.048Z,18.5
2023-05-08T12:13:23.376Z,19
2023-05-08T12:15:24.368Z,19.1
2023-05-08T12:17:25.534Z,19.1
2023-05-08T12:18:27.563Z,19.1
2023-05-08T12:34:39.213Z,19.5
2023-05-08T12:40:45.551Z,19.7
2023-05-08T12:44:47.664Z,19.8
2023-05-08T12:46:48.769Z,19.7
2023-05-08T12:48:49.742Z,19.5
2023-05-08T12:50:50.784Z,19.5
2023-05-08T12:52:52.198Z,19.5
2023-05-08T12:56:57.138Z,19.5
2023-05-08T13:03:00.439Z,19.4
2023-05-08T13:05:01.284Z,19.3
2023-05-08T13:07:02.329Z,19.5
2023-05-08T13:09:06.552Z,19.7
2023-05-08T13:13:08.689Z,19.9
2023-05-08T13:14:10.877Z,20
2023-05-08T13:20:14.116Z,20.3
2023-05-08T13:24:19.147Z,20.4
2023-05-08T13:30:22.243Z,20.5
2023-05-08T13:32:23.308Z,20.4
2023-05-08T13:36:28.533Z,20.1
2023-05-08T13:38:29.544Z,20.1
2023-05-08T13:40:30.587Z,20.3
2023-05-08T13:42:31.609Z,20.3
2023-05-08T13:44:32.628Z,19.9
2023-05-08T13:46:33.680Z,19.9
2023-05-08T13:48:34.705Z,20
2023-05-08T13:50:38.936Z,20.3
2023-05-08T13:52:39.918Z,20.4
2023-05-08T13:54:40.953Z,20.5
2023-05-08T13:56:41.973Z,20.5
2023-05-08T13:58:43.018Z,20.6
2023-05-08T14:00:44.011Z,20.7
2023-05-08T14:02:45.261Z,20.9
2023-05-08T14:04:49.278Z,21.3
2023-05-08T14:06:50.280Z,21.2
2023-05-08T14:08:54.207Z,21.2
2023-05-08T14:11:19.120Z,21.4
2023-05-08T14:15:22.170Z,21.2
2023-05-08T14:17:25.450Z,21.1
2023-05-08T14:21:27.387Z,21
2023-05-08T14:31:35.703Z,20.7
2023-05-08T14:33:36.644Z,20.7
2023-05-08T14:37:38.675Z,20.9
2023-05-08T14:41:40.699Z,21
2023-05-08T14:43:41.701Z,21.1
2023-05-08T14:45:45.910Z,21.2
2023-05-08T14:47:46.937Z,21.2
2023-05-08T14:49:47.929Z,21.1
2023-05-08T14:51:48.933Z,20.9
2023-05-08T14:55:51.423Z,20.8
2023-05-08T14:57:51.962Z,20.5
2023-05-08T14:59:56.213Z,20.4
2023-05-08T15:01:57.236Z,20.4
2023-05-08T15:03:58.308Z,20.5
2023-05-08T15:05:00.318Z,20.7
2023-05-08T15:09:02.339Z,20.7
2023-05-08T15:11:03.344Z,20.8
2023-05-08T15:15:08.578Z,20.3
2023-05-08T15:19:10.586Z,20
2023-05-08T15:21:11.609Z,19.9
2023-05-08T15:25:13.840Z,19.7
2023-05-08T15:27:17.897Z,19.8
2023-05-08T15:29:20.452Z,19.8
2023-05-08T15:31:21.503Z,19.8
2023-05-08T15:33:22.474Z,19.8
2023-05-08T15:35:23.540Z,19.2
2023-05-08T15:37:24.572Z,18.6
2023-05-08T15:39:25.622Z,18.6
2023-05-08T15:41:29.849Z,18.9
2023-05-08T15:43:30.883Z,19
2023-05-08T15:45:31.961Z,19
2023-05-08T15:47:32.974Z,19.1
2023-05-08T15:49:34.015Z,19.1
2023-05-08T15:51:35.051Z,19.2
2023-05-08T15:53:36.094Z,19.2
2023-05-08T15:55:40.315Z,19.3
2023-05-08T15:57:41.386Z,19.3
2023-05-08T15:59:42.426Z,19.3
2023-05-08T16:00:45.666Z,19.2
2023-05-08T16:02:45.652Z,19.2
2023-05-08T16:04:46.643Z,19.3
2023-05-08T16:06:47.669Z,19.3
2023-05-08T16:08:51.909Z,19.4
2023-05-08T16:10:52.970Z,19.5
2023-05-08T16:12:54.034Z,19.5
2023-05-08T16:14:55.061Z,19.6
2023-05-08T16:16:56.095Z,19.6
2023-05-08T16:27:04.542Z,19.7
2023-05-08T16:29:05.586Z,19.6
2023-05-08T16:31:06.683Z,19.7
2023-05-08T16:39:13.980Z,19.7
2023-05-08T16:43:16.065Z,19.7
2023-05-08T16:47:18.159Z,19.6
2023-05-08T16:53:24.463Z,19.7
2023-05-08T16:55:25.516Z,19.8
2023-05-08T16:56:27.627Z,19.9
2023-05-08T17:00:29.699Z,19.8
2023-05-08T17:02:30.876Z,19.7
2023-05-08T17:04:34.986Z,19.6
2023-05-08T17:06:36.028Z,19.6
2023-05-08T17:08:37.079Z,19.6
2023-05-08T17:12:39.174Z,19.5
2023-05-08T17:14:40.246Z,19.5
2023-05-08T17:18:45.494Z,19.4
2023-05-08T17:22:47.561Z,19.4
2023-05-08T17:24:48.656Z,19.3
2023-05-08T17:26:49.643Z,19.3
2023-05-08T17:36:58.114Z,19
2023-05-08T17:38:59.119Z,18.9
2023-05-08T17:43:01.258Z,18.9
2023-05-08T17:45:02.304Z,19.1
2023-05-08T17:47:06.533Z,19
2023-05-08T17:49:07.591Z,19.1
2023-05-08T17:51:08.643Z,19.1
2023-05-08T17:53:36.500Z,19.2
2023-05-08T17:55:37.559Z,19.1
2023-05-08T17:57:38.626Z,19.1
2023-05-08T17:59:43.099Z,19.1
2023-05-08T18:01:44.254Z,19.1
2023-05-08T18:03:45.262Z,19.1
2023-05-08T18:07:47.336Z,19
2023-05-08T18:09:48.360Z,18.9
2023-05-08T18:13:53.660Z,18.9
2023-05-08T18:15:54.738Z,18.9
2023-05-08T18:17:55.802Z,19
2023-05-08T18:23:58.951Z,18.9
2023-05-08T18:28:04.272Z,18.8
2023-05-08T18:30:05.324Z,18.8
2023-05-08T18:32:06.388Z,18.8
2023-05-08T18:34:07.437Z,18.8
2023-05-08T18:42:14.863Z,18.2
2023-05-08T18:46:17.070Z,17.7
2023-05-08T18:47:19.104Z,17.6
2023-05-08T18:49:20.169Z,17.5
2023-05-08T18:51:21.243Z,17.4
2023-05-08T18:53:22.304Z,17.4
2023-05-08T18:55:26.559Z,17.4
2023-05-08T18:57:27.628Z,17.4
2023-05-08T18:59:28.696Z,17.3
2023-05-08T19:01:29.783Z,17.2
2023-05-08T19:03:30.960Z,17.2
2023-05-08T19:09:37.251Z,16.8
2023-05-08T19:11:38.354Z,16.8
2023-05-08T19:17:41.957Z,16.6
2023-05-08T19:21:44.050Z,16.5
2023-05-08T19:23:48.329Z,16.5
2023-05-08T19:27:50.503Z,16.4
2023-05-08T19:29:51.600Z,16.4
2023-05-08T19:31:52.737Z,16.4
2023-05-08T19:33:53.777Z,16.3
2023-05-08T19:35:54.853Z,16.3
2023-05-08T19:37:59.137Z,16.2
2023-05-08T19:40:00.301Z,16.2
2023-05-08T19:43:03.434Z,16.2
2023-05-08T19:45:04.566Z,16.1
2023-05-08T19:47:05.646Z,16.1
2023-05-08T19:49:06.755Z,16.1
2023-05-08T19:55:13.213Z,16
2023-05-08T20:07:22.955Z,15.8
2023-05-08T20:09:24.051Z,15.7
2023-05-08T20:11:25.167Z,15.7
2023-05-08T20:13:26.294Z,15.7
2023-05-08T20:15:27.357Z,15.7
2023-05-08T20:17:28.458Z,15.7
2023-05-08T20:21:33.810Z,15.6
2023-05-08T20:25:36.004Z,15.6
2023-05-08T20:27:37.106Z,15.6
2023-05-08T20:31:39.337Z,15.6
2023-05-08T20:38:47.925Z,15.6
2023-05-08T20:40:49.019Z,15.6
2023-05-08T20:42:50.120Z,15.5
2023-05-08T20:44:51.216Z,15.5
2023-05-08T20:46:55.492Z,15.5
2023-05-08T20:50:57.703Z,15.5
2023-05-08T21:05:08.801Z,15.4
2023-05-08T21:07:09.663Z,15.4
2023-05-08T21:09:10.745Z,15.3
2023-05-08T21:11:11.857Z,15.4
2023-05-08T21:13:13.004Z,15.3
2023-05-08T21:15:17.229Z,15.4
2023-05-08T21:17:18.339Z,15.4
2023-05-08T21:19:20.967Z,15.4
2023-05-08T21:21:22.026Z,15.4
2023-05-08T21:23:23.148Z,15.4
2023-05-08T21:25:24.238Z,15.4
2023-05-08T21:27:25.320Z,15.4
2023-05-08T21:29:29.624Z,15.4
2023-05-08T21:31:30.786Z,15.5
2023-05-08T21:33:31.806Z,15.5
2023-05-08T21:38:00.885Z,15.5
2023-05-08T21:44:07.384Z,15.6
2023-05-08T21:52:11.764Z,15.5
2023-05-08T21:54:12.895Z,15.6
2023-05-08T21:56:17.149Z,15.5
2023-05-08T22:02:20.470Z,15.4
2023-05-08T22:04:21.567Z,15.3
2023-05-08T22:06:22.687Z,15.3
2023-05-08T22:08:23.796Z,15.3
2023-05-08T22:10:28.062Z,15.3
2023-05-08T22:14:30.302Z,15.3
2023-05-08T22:16:31.412Z,15.3
2023-05-08T22:20:33.590Z,15.3
2023-05-08T22:22:34.671Z,15.3
2023-05-08T22:24:38.969Z,15.2
2023-05-08T22:29:43.367Z,15.2
2023-05-08T22:31:44.531Z,15.2
2023-05-08T22:33:45.575Z,15.1
2023-05-08T22:35:46.662Z,15.2
2023-05-08T22:37:50.965Z,15.2
2023-05-08T22:39:52.042Z,15.1
2023-05-08T22:41:53.133Z,15.2
2023-05-08T22:43:54.273Z,15.1
2023-05-08T22:45:55.379Z,15.2
2023-05-08T22:47:56.465Z,15.2
2023-05-08T22:49:57.567Z,15.2
2023-05-08T22:52:01.840Z,15.1
2023-05-08T22:54:02.939Z,15.1
2023-05-08T22:56:04.063Z,15.2
2023-05-08T22:58:05.178Z,15.1
2023-05-08T23:00:06.276Z,15.1
2023-05-08T23:02:07.369Z,15.2
2023-05-08T23:04:08.502Z,15.2
2023-05-08T23:06:12.739Z,15.2
2023-05-08T23:08:13.851Z,15.2
2023-05-08T23:10:14.942Z,15.2
2023-05-08T23:12:16.060Z,15.1
2023-05-08T23:14:17.180Z,15.2
2023-05-08T23:16:18.288Z,15.2
2023-05-08T23:18:19.345Z,15.2
2023-05-08T23:20:23.663Z,15.2
2023-05-08T23:24:25.863Z,15.2
2023-05-08T23:25:27.990Z,15.2
2023-05-08T23:29:30.179Z,15.2
2023-05-08T23:31:31.330Z,15.1
2023-05-08T23:33:35.893Z,15.1
2023-05-08T23:35:36.682Z,15.2
2023-05-08T23:39:38.882Z,15.2
2023-05-08T23:41:39.971Z,15.2
2023-05-08T23:43:41.100Z,15.1
2023-05-08T23:47:46.574Z,15.1
2023-05-08T23:49:47.617Z,15.1
2023-05-08T23:51:48.713Z,15.1
2023-05-08T23:53:49.823Z,15.1
2023-05-08T23:55:50.935Z,15.1
2023-05-08T23:57:52.017Z,15.1
2023-05-08T23:59:53.135Z,15.1
